sensor_id;sensor_type;location;lat;lon;timestamp;pressure;altitude;pressure_sealevel;temperature;humidity
7802;BME280;3945;48.952;9.506;2023-06-10T00:01:22;97559.34;;;19.10;60.99
7802;BME280;3945;48.952;9.506;2023-06-10T00:03:49;97555.38;;;19.08;61.07
7802;BME280;3945;48.952;9.506;2023-06-10T00:06:17;97558.06;;;19.08;61.06
7802;BME280;3945;48.952;9.506;2023-06-10T00:08:43;97555.47;;;19.03;61.76
7802;BME280;3945;48.952;9.506;2023-06-10T00:11:12;97559.09;;;18.98;61.49
7802;BME280;3945;48.952;9.506;2023-06-10T00:13:40;97559.09;;;18.98;61.19
7802;BME280;3945;48.952;9.506;2023-06-10T00:16:06;97560.19;;;18.97;61.50
7802;BME280;3945;48.952;9.506;2023-06-10T00:18:33;97566.50;;;18.93;61.05
7802;BME280;3945;48.952;9.506;2023-06-10T00:21:02;97560.59;;;18.91;61.32
7802;BME280;3945;48.952;9.506;2023-06-10T00:23:30;97563.31;;;18.91;60.91
7802;BME280;3945;48.952;9.506;2023-06-10T00:25:57;97559.31;;;18.88;60.94
7802;BME280;3945;48.952;9.506;2023-06-10T00:28:24;97567.72;;;18.87;61.12
7802;BME280;3945;48.952;9.506;2023-06-10T00:30:52;97558.03;;;18.86;61.18
7802;BME280;3945;48.952;9.506;2023-06-10T00:33:19;97554.66;;;18.80;61.89
7802;BME280;3945;48.952;9.506;2023-06-10T00:35:46;97561.16;;;18.79;61.41
7802;BME280;3945;48.952;9.506;2023-06-10T00:38:13;97558.75;;;18.78;61.83
7802;BME280;3945;48.952;9.506;2023-06-10T00:40:39;97559.34;;;18.75;61.76
7802;BME280;3945;48.952;9.506;2023-06-10T00:43:06;97559.47;;;18.69;61.55
7802;BME280;3945;48.952;9.506;2023-06-10T00:45:33;97564.34;;;18.67;62.08
7802;BME280;3945;48.952;9.506;2023-06-10T00:48:01;97563.06;;;18.65;61.91
7802;BME280;3945;48.952;9.506;2023-06-10T00:50:28;97561.56;;;18.59;62.34
7802;BME280;3945;48.952;9.506;2023-06-10T00:52:56;97568.63;;;18.55;62.92
7802;BME280;3945;48.952;9.506;2023-06-10T00:55:23;97569.03;;;18.48;62.77
7802;BME280;3945;48.952;9.506;2023-06-10T00:57:50;97566.91;;;18.45;62.86
7802;BME280;3945;48.952;9.506;2023-06-10T01:00:17;97572.94;;;18.42;62.90
7802;BME280;3945;48.952;9.506;2023-06-10T01:02:44;97571.31;;;18.41;62.98
7802;BME280;3945;48.952;9.506;2023-06-10T01:05:12;97573.50;;;18.39;63.00
7802;BME280;3945;48.952;9.506;2023-06-10T01:07:43;97567.63;;;18.37;62.80
7802;BME280;3945;48.952;9.506;2023-06-10T01:10:17;97569.84;;;18.35;62.98
7802;BME280;3945;48.952;9.506;2023-06-10T01:12:49;97562.56;;;18.36;62.63
7802;BME280;3945;48.952;9.506;2023-06-10T01:15:18;97563.34;;;18.36;62.52
7802;BME280;3945;48.952;9.506;2023-06-10T01:17:54;97565.25;;;18.36;62.76
7802;BME280;3945;48.952;9.506;2023-06-10T01:20:24;97570.31;;;18.37;62.88
7802;BME280;3945;48.952;9.506;2023-06-10T01:22:53;97562.56;;;18.36;62.99
7802;BME280;3945;48.952;9.506;2023-06-10T01:25:20;97561.25;;;18.33;63.33
7802;BME280;3945;48.952;9.506;2023-06-10T01:27:53;97564.53;;;18.30;62.89
7802;BME280;3945;48.952;9.506;2023-06-10T01:30:26;97568.63;;;18.27;63.08
7802;BME280;3945;48.952;9.506;2023-06-10T01:32:55;97561.44;;;18.23;63.86
7802;BME280;3945;48.952;9.506;2023-06-10T01:35:25;97566.34;;;18.21;63.90
7802;BME280;3945;48.952;9.506;2023-06-10T01:37:54;97571.50;;;18.17;64.16
7802;BME280;3945;48.952;9.506;2023-06-10T01:40:23;97567.31;;;18.11;64.28
7802;BME280;3945;48.952;9.506;2023-06-10T01:42:50;97570.91;;;18.07;64.46
7802;BME280;3945;48.952;9.506;2023-06-10T01:45:17;97572.13;;;18.01;64.61
7802;BME280;3945;48.952;9.506;2023-06-10T01:47:44;97563.72;;;18.02;64.81
7802;BME280;3945;48.952;9.506;2023-06-10T01:50:10;97562.72;;;17.98;64.55
7802;BME280;3945;48.952;9.506;2023-06-10T01:52:37;97577.78;;;17.99;64.69
7802;BME280;3945;48.952;9.506;2023-06-10T01:55:05;97561.63;;;17.99;64.72
7802;BME280;3945;48.952;9.506;2023-06-10T01:57:32;97571.59;;;17.99;64.98
7802;BME280;3945;48.952;9.506;2023-06-10T01:59:58;97571.59;;;17.99;65.21
7802;BME280;3945;48.952;9.506;2023-06-10T02:02:24;97574.81;;;18.01;64.87
7802;BME280;3945;48.952;9.506;2023-06-10T02:04:51;97572.41;;;17.99;65.01
7802;BME280;3945;48.952;9.506;2023-06-10T02:07:17;97577.56;;;17.95;65.43
7802;BME280;3945;48.952;9.506;2023-06-10T02:09:44;97578.97;;;17.93;65.38
7802;BME280;3945;48.952;9.506;2023-06-10T02:12:12;97577.44;;;17.87;65.87
7802;BME280;3945;48.952;9.506;2023-06-10T02:14:38;97575.06;;;17.85;65.87
7802;BME280;3945;48.952;9.506;2023-06-10T02:17:05;97578.94;;;17.79;66.04
7802;BME280;3945;48.952;9.506;2023-06-10T02:19:32;97576.63;;;17.73;66.46
7802;BME280;3945;48.952;9.506;2023-06-10T02:22:01;97579.13;;;17.69;66.88
7802;BME280;3945;48.952;9.506;2023-06-10T02:24:28;97576.72;;;17.68;66.82
7802;BME280;3945;48.952;9.506;2023-06-10T02:26:54;97572.41;;;17.67;66.95
7802;BME280;3945;48.952;9.506;2023-06-10T02:29:23;97573.03;;;17.64;67.24
7802;BME280;3945;48.952;9.506;2023-06-10T02:31:50;97580.78;;;17.65;67.16
7802;BME280;3945;48.952;9.506;2023-06-10T02:34:18;97583.78;;;17.64;67.63
7802;BME280;3945;48.952;9.506;2023-06-10T02:36:44;97585.69;;;17.63;67.69
7802;BME280;3945;48.952;9.506;2023-06-10T02:39:11;97576.25;;;17.61;67.87
7802;BME280;3945;48.952;9.506;2023-06-10T02:41:38;97590.53;;;17.61;67.69
7802;BME280;3945;48.952;9.506;2023-06-10T02:44:04;97584.06;;;17.62;68.14
7802;BME280;3945;48.952;9.506;2023-06-10T02:46:32;97588.66;;;17.62;68.03
7802;BME280;3945;48.952;9.506;2023-06-10T02:48:59;97580.78;;;17.65;68.28
7802;BME280;3945;48.952;9.506;2023-06-10T02:51:27;97587.56;;;17.63;68.31
7802;BME280;3945;48.952;9.506;2023-06-10T02:53:53;97589.97;;;17.64;68.38
7802;BME280;3945;48.952;9.506;2023-06-10T02:56:19;97588.84;;;17.65;68.61
7802;BME280;3945;48.952;9.506;2023-06-10T02:58:48;97591.06;;;17.63;68.77
7802;BME280;3945;48.952;9.506;2023-06-10T03:01:15;97596.19;;;17.60;69.10
7802;BME280;3945;48.952;9.506;2023-06-10T03:03:42;97591.91;;;17.58;69.41
7802;BME280;3945;48.952;9.506;2023-06-10T03:06:09;97593.00;;;17.58;69.07
7802;BME280;3945;48.952;9.506;2023-06-10T03:08:37;97589.81;;;17.55;69.39
7802;BME280;3945;48.952;9.506;2023-06-10T03:11:04;97597.38;;;17.53;69.60
7802;BME280;3945;48.952;9.506;2023-06-10T03:13:30;97591.78;;;17.50;69.54
7802;BME280;3945;48.952;9.506;2023-06-10T03:15:57;97597.75;;;17.47;69.71
7802;BME280;3945;48.952;9.506;2023-06-10T03:18:26;97601.00;;;17.44;70.13
7802;BME280;3945;48.952;9.506;2023-06-10T03:20:54;97603.22;;;17.42;70.04
7802;BME280;3945;48.952;9.506;2023-06-10T03:23:21;97595.44;;;17.40;70.50
7802;BME280;3945;48.952;9.506;2023-06-10T03:25:48;97603.25;;;17.37;70.70
7802;BME280;3945;48.952;9.506;2023-06-10T03:28:14;97604.06;;;17.37;70.43
7802;BME280;3945;48.952;9.506;2023-06-10T03:30:41;97593.09;;;17.34;70.95
7802;BME280;3945;48.952;9.506;2023-06-10T03:33:07;97607.34;;;17.34;70.99
7802;BME280;3945;48.952;9.506;2023-06-10T03:35:34;97603.88;;;17.34;71.36
7802;BME280;3945;48.952;9.506;2023-06-10T03:38:02;97602.03;;;17.29;71.52
7802;BME280;3945;48.952;9.506;2023-06-10T03:40:29;97607.72;;;17.28;71.68
7802;BME280;3945;48.952;9.506;2023-06-10T03:42:56;97605.31;;;17.26;71.43
7802;BME280;3945;48.952;9.506;2023-06-10T03:45:23;97606.41;;;17.25;71.78
7802;BME280;3945;48.952;9.506;2023-06-10T03:47:50;97606.69;;;17.24;72.01
7802;BME280;3945;48.952;9.506;2023-06-10T03:50:17;97610.78;;;17.21;72.47
7802;BME280;3945;48.952;9.506;2023-06-10T03:52:43;97610.28;;;17.19;72.69
7802;BME280;3945;48.952;9.506;2023-06-10T03:55:12;97612.72;;;17.15;72.85
7802;BME280;3945;48.952;9.506;2023-06-10T03:57:39;97625.09;;;17.16;73.21
7802;BME280;3945;48.952;9.506;2023-06-10T04:00:06;97622.69;;;17.15;73.48
7802;BME280;3945;48.952;9.506;2023-06-10T04:02:36;97620.50;;;17.17;73.48
7802;BME280;3945;48.952;9.506;2023-06-10T04:05:02;97625.09;;;17.16;73.62
7802;BME280;3945;48.952;9.506;2023-06-10T04:07:29;97629.63;;;17.21;73.55
7802;BME280;3945;48.952;9.506;2023-06-10T04:09:56;97618.53;;;17.23;73.37
7802;BME280;3945;48.952;9.506;2023-06-10T04:12:23;97622.53;;;17.25;73.32
7802;BME280;3945;48.952;9.506;2023-06-10T04:14:50;97631.63;;;17.29;73.53
7802;BME280;3945;48.952;9.506;2023-06-10T04:17:17;97631.84;;;17.33;73.45
7802;BME280;3945;48.952;9.506;2023-06-10T04:19:43;97627.28;;;17.33;73.48
7802;BME280;3945;48.952;9.506;2023-06-10T04:22:10;97628.06;;;17.34;73.92
7802;BME280;3945;48.952;9.506;2023-06-10T04:24:37;97628.88;;;17.34;74.12
7802;BME280;3945;48.952;9.506;2023-06-10T04:27:04;97633.38;;;17.39;74.38
7802;BME280;3945;48.952;9.506;2023-06-10T04:29:32;97634.88;;;17.45;74.36
7802;BME280;3945;48.952;9.506;2023-06-10T04:31:58;97635.63;;;17.50;74.51
7802;BME280;3945;48.952;9.506;2023-06-10T04:34:25;97640.66;;;17.57;74.46
7802;BME280;3945;48.952;9.506;2023-06-10T04:36:52;97643.00;;;17.64;74.12
7802;BME280;3945;48.952;9.506;2023-06-10T04:39:18;97641.31;;;17.68;74.27
7802;BME280;3945;48.952;9.506;2023-06-10T04:41:45;97640.72;;;17.71;74.25
7802;BME280;3945;48.952;9.506;2023-06-10T04:44:11;97643.34;;;17.76;74.44
7802;BME280;3945;48.952;9.506;2023-06-10T04:46:40;97637.38;;;17.79;74.08
7802;BME280;3945;48.952;9.506;2023-06-10T04:49:06;97638.66;;;17.81;74.11
7802;BME280;3945;48.952;9.506;2023-06-10T04:51:32;97642.38;;;17.85;73.79
7802;BME280;3945;48.952;9.506;2023-06-10T04:53:59;97650.66;;;17.89;74.11
7802;BME280;3945;48.952;9.506;2023-06-10T04:56:27;97647.56;;;17.95;73.71
7802;BME280;3945;48.952;9.506;2023-06-10T04:58:53;97647.50;;;18.01;73.92
7802;BME280;3945;48.952;9.506;2023-06-10T05:01:20;97654.41;;;18.07;73.67
7802;BME280;3945;48.952;9.506;2023-06-10T05:03:47;97651.84;;;18.15;73.64
7802;BME280;3945;48.952;9.506;2023-06-10T05:06:14;97653.03;;;18.23;73.64
7802;BME280;3945;48.952;9.506;2023-06-10T05:08:40;97654.22;;;18.30;73.51
7802;BME280;3945;48.952;9.506;2023-06-10T05:11:06;97658.06;;;18.43;73.90
7802;BME280;3945;48.952;9.506;2023-06-10T05:13:33;97657.56;;;18.55;73.71
7802;BME280;3945;48.952;9.506;2023-06-10T05:16:00;97655.50;;;18.65;73.93
7802;BME280;3945;48.952;9.506;2023-06-10T05:18:26;97657.69;;;18.77;74.04
7802;BME280;3945;48.952;9.506;2023-06-10T05:20:54;97655.28;;;18.89;74.00
7802;BME280;3945;48.952;9.506;2023-06-10T05:23:20;97656.38;;;19.02;73.69
7802;BME280;3945;48.952;9.506;2023-06-10T05:25:46;97658.06;;;19.11;73.32
7802;BME280;3945;48.952;9.506;2023-06-10T05:28:13;97659.25;;;19.19;72.97
7802;BME280;3945;48.952;9.506;2023-06-10T05:30:39;97656.34;;;19.29;72.94
7802;BME280;3945;48.952;9.506;2023-06-10T05:33:05;97662.00;;;19.41;73.11
7802;BME280;3945;48.952;9.506;2023-06-10T05:35:32;97656.88;;;19.54;72.51
7802;BME280;3945;48.952;9.506;2023-06-10T05:37:59;97653.34;;;19.67;71.71
7802;BME280;3945;48.952;9.506;2023-06-10T05:40:26;97658.06;;;19.83;71.10
7802;BME280;3945;48.952;9.506;2023-06-10T05:42:52;97655.31;;;19.97;69.89
7802;BME280;3945;48.952;9.506;2023-06-10T05:45:18;97657.31;;;20.14;69.63
7802;BME280;3945;48.952;9.506;2023-06-10T05:47:45;97657.75;;;20.30;69.28
7802;BME280;3945;48.952;9.506;2023-06-10T05:50:11;97666.59;;;20.44;69.24
7802;BME280;3945;48.952;9.506;2023-06-10T05:52:37;97670.00;;;20.58;68.54
7802;BME280;3945;48.952;9.506;2023-06-10T05:55:07;97673.09;;;20.74;68.42
7802;BME280;3945;48.952;9.506;2023-06-10T05:57:33;97667.72;;;20.91;68.37
7802;BME280;3945;48.952;9.506;2023-06-10T05:59:59;97673.19;;;21.08;66.41
7802;BME280;3945;48.952;9.506;2023-06-10T06:02:26;97668.16;;;21.24;64.92
7802;BME280;3945;48.952;9.506;2023-06-10T06:04:52;97666.91;;;21.38;65.01
7802;BME280;3945;48.952;9.506;2023-06-10T06:07:19;97669.91;;;21.54;64.32
7802;BME280;3945;48.952;9.506;2023-06-10T06:09:46;97670.56;;;21.68;64.77
7802;BME280;3945;48.952;9.506;2023-06-10T06:12:13;97665.78;;;21.83;64.88
7802;BME280;3945;48.952;9.506;2023-06-10T06:14:40;97671.34;;;21.95;64.08
7802;BME280;3945;48.952;9.506;2023-06-10T06:17:07;97675.50;;;22.09;63.14
7802;BME280;3945;48.952;9.506;2023-06-10T06:19:33;97670.69;;;22.24;62.48
7802;BME280;3945;48.952;9.506;2023-06-10T06:22:00;97679.56;;;22.41;63.93
7802;BME280;3945;48.952;9.506;2023-06-10T06:24:26;97675.22;;;22.57;62.32
7802;BME280;3945;48.952;9.506;2023-06-10T06:26:53;97674.56;;;22.69;61.66
7802;BME280;3945;48.952;9.506;2023-06-10T06:29:21;97668.94;;;22.83;61.45
7802;BME280;3945;48.952;9.506;2023-06-10T06:31:47;97674.25;;;23.00;60.93
7802;BME280;3945;48.952;9.506;2023-06-10T06:34:13;97675.16;;;23.13;60.70
7802;BME280;3945;48.952;9.506;2023-06-10T06:36:40;97676.50;;;23.27;60.05
7802;BME280;3945;48.952;9.506;2023-06-10T06:39:06;97669.50;;;23.47;59.71
7802;BME280;3945;48.952;9.506;2023-06-10T06:41:33;97667.94;;;23.67;58.54
7802;BME280;3945;48.952;9.506;2023-06-10T06:43:59;97666.66;;;23.85;59.61
7802;BME280;3945;48.952;9.506;2023-06-10T06:46:27;97675.31;;;23.99;58.50
7802;BME280;3945;48.952;9.506;2023-06-10T06:48:54;97668.56;;;24.05;58.08
7802;BME280;3945;48.952;9.506;2023-06-10T06:51:21;97676.28;;;24.16;57.09
7802;BME280;3945;48.952;9.506;2023-06-10T06:53:47;97669.78;;;24.29;57.89
7802;BME280;3945;48.952;9.506;2023-06-10T06:56:15;97671.06;;;24.43;56.47
7802;BME280;3945;48.952;9.506;2023-06-10T06:58:42;97671.19;;;24.47;56.20
7802;BME280;3945;48.952;9.506;2023-06-10T07:01:08;97670.97;;;24.52;55.65
7802;BME280;3945;48.952;9.506;2023-06-10T07:03:36;97671.53;;;24.58;54.89
7802;BME280;3945;48.952;9.506;2023-06-10T07:06:03;97669.19;;;24.68;54.82
7802;BME280;3945;48.952;9.506;2023-06-10T07:08:30;97667.50;;;24.76;55.21
7802;BME280;3945;48.952;9.506;2023-06-10T07:10:56;97668.78;;;24.91;55.96
7802;BME280;3945;48.952;9.506;2023-06-10T07:13:23;97676.03;;;25.11;54.69
7802;BME280;3945;48.952;9.506;2023-06-10T07:15:49;97677.72;;;25.27;54.29
7802;BME280;3945;48.952;9.506;2023-06-10T07:18:16;97675.78;;;25.40;53.00
7802;BME280;3945;48.952;9.506;2023-06-10T07:20:44;97680.50;;;25.55;54.61
7802;BME280;3945;48.952;9.506;2023-06-10T07:23:11;97685.03;;;25.76;54.26
7802;BME280;3945;48.952;9.506;2023-06-10T07:25:37;97680.53;;;25.95;53.76
7802;BME280;3945;48.952;9.506;2023-06-10T07:28:04;97686.22;;;26.18;53.03
7802;BME280;3945;48.952;9.506;2023-06-10T07:30:30;97679.09;;;26.41;53.13
7802;BME280;3945;48.952;9.506;2023-06-10T07:32:57;97671.50;;;26.66;52.16
7802;BME280;3945;48.952;9.506;2023-06-10T07:35:24;97683.91;;;26.92;51.71
7802;BME280;3945;48.952;9.506;2023-06-10T07:37:52;97680.88;;;27.12;52.04
7802;BME280;3945;48.952;9.506;2023-06-10T07:40:18;97670.97;;;27.24;51.59
7802;BME280;3945;48.952;9.506;2023-06-10T07:42:45;97674.03;;;27.38;51.10
7802;BME280;3945;48.952;9.506;2023-06-10T07:45:11;97677.78;;;27.49;51.58
7802;BME280;3945;48.952;9.506;2023-06-10T07:47:38;97675.47;;;27.67;51.00
7802;BME280;3945;48.952;9.506;2023-06-10T07:50:05;97674.84;;;27.73;48.01
7802;BME280;3945;48.952;9.506;2023-06-10T07:52:31;97675.47;;;27.67;47.47
7802;BME280;3945;48.952;9.506;2023-06-10T07:54:59;97670.53;;;27.72;49.88
7802;BME280;3945;48.952;9.506;2023-06-10T07:57:26;97670.38;;;27.84;49.03
7802;BME280;3945;48.952;9.506;2023-06-10T07:59:52;97672.16;;;27.96;48.26
7802;BME280;3945;48.952;9.506;2023-06-10T08:02:20;97669.69;;;28.10;48.07
7802;BME280;3945;48.952;9.506;2023-06-10T08:04:46;97669.22;;;28.24;48.45
7802;BME280;3945;48.952;9.506;2023-06-10T08:07:13;97665.84;;;28.30;46.95
7802;BME280;3945;48.952;9.506;2023-06-10T08:09:39;97666.88;;;28.45;49.24
7802;BME280;3945;48.952;9.506;2023-06-10T08:12:08;97658.34;;;28.50;47.64
7802;BME280;3945;48.952;9.506;2023-06-10T08:14:34;97668.69;;;28.60;46.40
7802;BME280;3945;48.952;9.506;2023-06-10T08:17:02;97663.88;;;28.54;46.63
7802;BME280;3945;48.952;9.506;2023-06-10T08:19:30;97673.41;;;28.60;47.82
7802;BME280;3945;48.952;9.506;2023-06-10T08:21:57;97653.59;;;28.70;46.29
7802;BME280;3945;48.952;9.506;2023-06-10T08:24:23;97662.84;;;28.81;45.29
7802;BME280;3945;48.952;9.506;2023-06-10T08:26:50;97657.94;;;28.94;47.57
7802;BME280;3945;48.952;9.506;2023-06-10T08:29:18;97658.97;;;29.08;47.15
7802;BME280;3945;48.952;9.506;2023-06-10T08:31:44;97660.91;;;29.08;44.01
7802;BME280;3945;48.952;9.506;2023-06-10T08:34:11;97659.13;;;28.96;45.23
7802;BME280;3945;48.952;9.506;2023-06-10T08:36:37;97649.81;;;29.27;44.85
7802;BME280;3945;48.952;9.506;2023-06-10T08:39:04;97638.72;;;29.73;43.57
7802;BME280;3945;48.952;9.506;2023-06-10T08:41:33;97654.91;;;29.85;42.95
7802;BME280;3945;48.952;9.506;2023-06-10T08:44:06;97648.34;;;30.26;43.43
7802;BME280;3945;48.952;9.506;2023-06-10T08:46:36;97663.41;;;30.40;41.54
7802;BME280;3945;48.952;9.506;2023-06-10T08:49:05;97660.00;;;30.94;40.90
7802;BME280;3945;48.952;9.506;2023-06-10T08:51:33;97659.50;;;31.32;41.85
7802;BME280;3945;48.952;9.506;2023-06-10T08:54:02;97673.00;;;31.59;39.32
7802;BME280;3945;48.952;9.506;2023-06-10T08:56:30;97673.50;;;31.71;40.47
7802;BME280;3945;48.952;9.506;2023-06-10T08:59:02;97665.78;;;32.05;40.73
7802;BME280;3945;48.952;9.506;2023-06-10T09:01:29;97667.06;;;32.36;41.30
7802;BME280;3945;48.952;9.506;2023-06-10T09:03:58;97655.28;;;32.64;39.48
7802;BME280;3945;48.952;9.506;2023-06-10T09:06:26;97649.34;;;32.44;39.05
7802;BME280;3945;48.952;9.506;2023-06-10T09:08:52;97657.25;;;32.53;39.86
7802;BME280;3945;48.952;9.506;2023-06-10T09:11:19;97650.22;;;32.70;40.36
7802;BME280;3945;48.952;9.506;2023-06-10T09:13:46;97649.78;;;32.92;38.49
7802;BME280;3945;48.952;9.506;2023-06-10T09:16:12;97649.03;;;32.92;37.86
7802;BME280;3945;48.952;9.506;2023-06-10T09:18:39;97643.09;;;32.93;38.54
7802;BME280;3945;48.952;9.506;2023-06-10T09:21:07;97646.66;;;32.80;38.46
7802;BME280;3945;48.952;9.506;2023-06-10T09:23:33;97645.09;;;32.68;37.83
7802;BME280;3945;48.952;9.506;2023-06-10T09:26:00;97641.50;;;32.57;38.69
7802;BME280;3945;48.952;9.506;2023-06-10T09:28:29;97646.22;;;32.39;38.73
7802;BME280;3945;48.952;9.506;2023-06-10T09:31:02;97654.84;;;32.30;38.35
7802;BME280;3945;48.952;9.506;2023-06-10T09:33:29;97652.31;;;31.83;38.93
7802;BME280;3945;48.952;9.506;2023-06-10T09:35:56;97647.84;;;31.57;40.33
7802;BME280;3945;48.952;9.506;2023-06-10T09:38:30;97647.84;;;31.53;40.29
7802;BME280;3945;48.952;9.506;2023-06-10T09:40:56;97649.63;;;31.28;41.08
7802;BME280;3945;48.952;9.506;2023-06-10T09:43:38;97642.97;;;31.29;40.54
7802;BME280;3945;48.952;9.506;2023-06-10T09:46:05;97641.66;;;30.61;39.43
7802;BME280;3945;48.952;9.506;2023-06-10T09:48:34;97644.44;;;30.27;40.62
7802;BME280;3945;48.952;9.506;2023-06-10T09:51:01;97640.28;;;30.85;39.84
7802;BME280;3945;48.952;9.506;2023-06-10T09:53:33;97645.34;;;31.34;39.28
7802;BME280;3945;48.952;9.506;2023-06-10T09:55:59;97648.31;;;31.66;38.76
7802;BME280;3945;48.952;9.506;2023-06-10T09:58:34;97637.00;;;31.20;37.93
7802;BME280;3945;48.952;9.506;2023-06-10T10:01:05;97640.56;;;31.20;40.38
7802;BME280;3945;48.952;9.506;2023-06-10T10:03:31;97631.31;;;31.57;38.92
7802;BME280;3945;48.952;9.506;2023-06-10T10:05:59;97631.91;;;31.91;37.23
7802;BME280;3945;48.952;9.506;2023-06-10T10:08:25;97628.75;;;31.92;35.96
7802;BME280;3945;48.952;9.506;2023-06-10T10:10:53;97622.78;;;31.72;37.53
7802;BME280;3945;48.952;9.506;2023-06-10T10:13:22;97627.66;;;31.31;38.29
7802;BME280;3945;48.952;9.506;2023-06-10T10:15:49;97624.91;;;31.35;38.48
7802;BME280;3945;48.952;9.506;2023-06-10T10:18:17;97625.44;;;31.58;38.41
7802;BME280;3945;48.952;9.506;2023-06-10T10:20:50;97625.19;;;31.88;37.53
7802;BME280;3945;48.952;9.506;2023-06-10T10:23:21;97621.63;;;31.77;36.81
7802;BME280;3945;48.952;9.506;2023-06-10T10:25:52;97625.19;;;31.92;36.50
7802;BME280;3945;48.952;9.506;2023-06-10T10:28:23;97628.34;;;31.87;35.48
7802;BME280;3945;48.952;9.506;2023-06-10T10:30:54;97624.00;;;31.86;35.81
7802;BME280;3945;48.952;9.506;2023-06-10T10:33:31;97620.47;;;31.82;36.36
7802;BME280;3945;48.952;9.506;2023-06-10T10:36:00;97618.59;;;31.27;36.37
7802;BME280;3945;48.952;9.506;2023-06-10T10:38:27;97625.00;;;31.49;38.60
7802;BME280;3945;48.952;9.506;2023-06-10T10:40:55;97620.44;;;31.74;36.99
7802;BME280;3945;48.952;9.506;2023-06-10T10:43:26;97621.28;;;32.00;36.18
7802;BME280;3945;48.952;9.506;2023-06-10T10:46:00;97608.41;;;32.25;36.62
7802;BME280;3945;48.952;9.506;2023-06-10T10:48:33;97594.66;;;32.46;35.65
7802;BME280;3945;48.952;9.506;2023-06-10T10:51:01;97609.63;;;32.81;38.39
7802;BME280;3945;48.952;9.506;2023-06-10T10:53:27;97606.06;;;32.59;33.91
7802;BME280;3945;48.952;9.506;2023-06-10T10:56:04;97610.00;;;32.62;35.95
7802;BME280;3945;48.952;9.506;2023-06-10T10:58:32;97599.75;;;32.51;36.58
7802;BME280;3945;48.952;9.506;2023-06-10T11:00:59;97601.72;;;32.40;37.38
7802;BME280;3945;48.952;9.506;2023-06-10T11:03:28;97595.44;;;32.40;37.18
7802;BME280;3945;48.952;9.506;2023-06-10T11:05:57;97599.66;;;31.98;37.06
7802;BME280;3945;48.952;9.506;2023-06-10T11:08:49;97610.47;;;31.56;36.66
7802;BME280;3945;48.952;9.506;2023-06-10T11:11:20;97610.81;;;31.43;38.32
7802;BME280;3945;48.952;9.506;2023-06-10T11:14:07;97600.41;;;31.85;38.16
7802;BME280;3945;48.952;9.506;2023-06-10T11:16:41;97600.41;;;31.88;37.18
7802;BME280;3945;48.952;9.506;2023-06-10T11:19:08;97605.44;;;31.61;38.44
7802;BME280;3945;48.952;9.506;2023-06-10T11:21:57;97601.06;;;31.57;39.17
7802;BME280;3945;48.952;9.506;2023-06-10T11:24:25;97605.13;;;31.88;38.55
7802;BME280;3945;48.952;9.506;2023-06-10T11:26:52;97590.31;;;32.31;36.11
7802;BME280;3945;48.952;9.506;2023-06-10T11:29:20;97581.66;;;32.61;36.22
7802;BME280;3945;48.952;9.506;2023-06-10T11:31:49;97588.72;;;32.66;35.81
7802;BME280;3945;48.952;9.506;2023-06-10T11:34:22;97584.03;;;32.84;37.07
7802;BME280;3945;48.952;9.506;2023-06-10T11:36:53;97585.19;;;33.04;34.50
7802;BME280;3945;48.952;9.506;2023-06-10T11:39:20;97585.16;;;33.25;34.18
7802;BME280;3945;48.952;9.506;2023-06-10T11:41:50;97581.28;;;32.80;34.42
7802;BME280;3945;48.952;9.506;2023-06-10T11:44:17;97584.38;;;32.22;34.71
7802;BME280;3945;48.952;9.506;2023-06-10T11:46:45;97582.38;;;32.08;34.86
7802;BME280;3945;48.952;9.506;2023-06-10T11:49:11;97579.69;;;32.54;35.03
7802;BME280;3945;48.952;9.506;2023-06-10T11:51:39;97579.66;;;32.93;36.57
7802;BME280;3945;48.952;9.506;2023-06-10T11:54:08;97575.72;;;32.94;34.94
7802;BME280;3945;48.952;9.506;2023-06-10T11:56:35;97585.22;;;32.76;34.37
7802;BME280;3945;48.952;9.506;2023-06-10T11:59:02;97580.50;;;32.73;33.68
7802;BME280;3945;48.952;9.506;2023-06-10T12:01:33;97570.59;;;33.04;36.74
7802;BME280;3945;48.952;9.506;2023-06-10T12:04:03;97565.47;;;33.20;33.68
7802;BME280;3945;48.952;9.506;2023-06-10T12:06:41;97568.19;;;33.34;33.63
7802;BME280;3945;48.952;9.506;2023-06-10T12:09:13;97558.31;;;33.37;34.22
7802;BME280;3945;48.952;9.506;2023-06-10T12:11:40;97569.44;;;32.87;32.89
7802;BME280;3945;48.952;9.506;2023-06-10T12:14:07;97571.81;;;32.39;33.22
7802;BME280;3945;48.952;9.506;2023-06-10T12:16:33;97572.19;;;32.51;34.25
7802;BME280;3945;48.952;9.506;2023-06-10T12:19:04;97573.00;;;32.48;33.25
7802;BME280;3945;48.952;9.506;2023-06-10T12:21:32;97556.06;;;32.57;33.55
7802;BME280;3945;48.952;9.506;2023-06-10T12:24:09;97563.16;;;32.83;33.77
7802;BME280;3945;48.952;9.506;2023-06-10T12:26:37;97559.59;;;32.29;34.35
7802;BME280;3945;48.952;9.506;2023-06-10T12:29:21;97568.16;;;31.85;35.84
7802;BME280;3945;48.952;9.506;2023-06-10T12:31:56;97565.75;;;31.73;34.98
7802;BME280;3945;48.952;9.506;2023-06-10T12:34:32;97564.22;;;31.86;34.98
7802;BME280;3945;48.952;9.506;2023-06-10T12:36:59;97563.09;;;31.98;35.24
7802;BME280;3945;48.952;9.506;2023-06-10T12:39:26;97562.34;;;32.18;36.30
7802;BME280;3945;48.952;9.506;2023-06-10T12:41:52;97562.72;;;32.21;36.00
7802;BME280;3945;48.952;9.506;2023-06-10T12:44:28;97562.31;;;32.11;33.77
7802;BME280;3945;48.952;9.506;2023-06-10T12:46:54;97559.97;;;32.21;36.13
7802;BME280;3945;48.952;9.506;2023-06-10T12:49:21;97554.50;;;32.42;34.84
7802;BME280;3945;48.952;9.506;2023-06-10T12:51:49;97557.25;;;32.60;34.94
7802;BME280;3945;48.952;9.506;2023-06-10T12:54:16;97552.94;;;32.48;35.53
7802;BME280;3945;48.952;9.506;2023-06-10T12:56:42;97565.91;;;32.72;35.76
7802;BME280;3945;48.952;9.506;2023-06-10T12:59:10;97546.63;;;32.40;34.03
7802;BME280;3945;48.952;9.506;2023-06-10T13:01:37;97545.34;;;31.81;35.84
7802;BME280;3945;48.952;9.506;2023-06-10T13:04:04;97563.47;;;31.06;36.85
7802;BME280;3945;48.952;9.506;2023-06-10T13:06:31;97560.81;;;30.65;37.49
7802;BME280;3945;48.952;9.506;2023-06-10T13:09:03;97549.91;;;30.28;36.81
7802;BME280;3945;48.952;9.506;2023-06-10T13:11:31;97558.53;;;29.90;37.67
7802;BME280;3945;48.952;9.506;2023-06-10T13:13:58;97556.50;;;30.20;38.76
7802;BME280;3945;48.952;9.506;2023-06-10T13:16:25;97557.09;;;30.44;37.47
7802;BME280;3945;48.952;9.506;2023-06-10T13:18:53;97556.44;;;30.57;37.98
7802;BME280;3945;48.952;9.506;2023-06-10T13:21:19;97551.13;;;30.82;37.64
7802;BME280;3945;48.952;9.506;2023-06-10T13:23:46;97553.97;;;31.00;37.30
7802;BME280;3945;48.952;9.506;2023-06-10T13:26:15;97558.47;;;31.22;38.80